Time;durP1;ratioP1;P1;durP2;ratioP2;P2;SDS_P1;SDS_P2;PMS_P1;PMS_P2;Temp;Humidity;BMP_temperature;BMP_pressure;BME280_temperature;BME280_humidity;BME280_pressure;Samples;Min_cycle;Max_cycle;Signal;HPM_P1;HPM_P2
2022/09/01 00:02:28;;;;;;;2.05;1.10;;;16.30;99.90;;;-144.05;45.85;125687.94;4937846;29;20099;-89
2022/09/01 00:04:57;;;;;;;5.28;1.20;;;16.30;99.90;;;-144.05;45.88;125687.94;4939091;29;20036;-88
2022/09/01 00:07:26;;;;;;;2.65;1.20;;;16.30;99.90;;;-144.05;45.82;125687.94;4937998;29;20100;-87
2022/09/01 00:09:52;;;;;;;1.50;1.00;;;16.30;99.90;;;-144.05;45.75;125687.94;4938317;29;20067;-89
2022/09/01 00:12:21;;;;;;;1.95;1.00;;;16.30;99.90;;;-144.05;46.39;125687.94;4936301;29;20496;-88
2022/09/01 00:14:48;;;;;;;2.38;1.00;;;16.30;99.90;;;-144.05;45.94;125687.94;4936463;29;20028;-88
2022/09/01 00:17:14;;;;;;;2.17;1.08;;;16.30;99.90;;;-144.05;46.13;125687.94;4920426;29;20091;-87
2022/09/01 00:19:40;;;;;;;2.55;1.27;;;16.20;99.90;;;-144.05;46.03;125687.94;4921399;29;20067;-87
2022/09/01 00:22:07;;;;;;;2.08;1.02;;;16.20;99.90;;;-144.05;46.13;125687.94;4921920;29;20039;-87
2022/09/01 00:24:33;;;;;;;2.03;1.10;;;16.20;99.90;;;-144.05;46.19;125687.94;4922518;29;20035;-89
2022/09/01 00:27:05;;;;;;;1.42;1.05;;;16.20;99.90;;;-144.05;46.28;125687.94;4922711;29;20054;-89
2022/09/01 00:29:33;;;;;;;1.63;1.00;;;16.20;99.90;;;-144.05;46.55;125687.94;4923055;29;20036;-90
2022/09/01 00:32:15;;;;;;;4.18;1.20;;;16.10;99.90;;;-144.05;46.47;125687.94;4938873;29;20047;-89
2022/09/01 00:34:49;;;;;;;2.13;1.23;;;16.10;99.90;;;-144.05;46.39;125687.94;4923848;29;20152;-89
2022/09/01 00:38:14;;;;;;;1.60;1.00;;;16.00;99.90;;;-144.05;46.71;125687.94;4923960;29;20092;-90
2022/09/01 00:40:44;;;;;;;6.47;1.60;;;16.00;99.90;;;-144.05;47.20;125687.94;4939408;29;20131;-90
2022/09/01 00:43:43;;;;;;;1.95;1.20;;;16.00;99.90;;;-144.05;47.28;125687.94;4923453;29;20457;-89
2022/09/01 00:46:27;;;;;;;2.25;1.27;;;16.10;99.90;;;-144.05;47.15;125687.94;4923559;29;20024;-89
2022/09/01 00:49:19;;;;;;;3.15;1.35;;;16.10;99.90;;;-144.05;47.31;125687.94;4923251;29;20234;-87
2022/09/01 00:51:58;;;;;;;4.32;1.40;;;16.00;99.90;;;-144.05;47.38;125687.94;4922986;29;20123;-87
2022/09/01 00:54:46;;;;;;;3.28;1.50;;;15.90;99.90;;;-144.05;47.66;125687.94;4923052;29;20036;-90
2022/09/01 00:57:15;;;;;;;4.40;1.20;;;15.90;99.90;;;-144.05;48.03;125687.94;4922830;29;20063;-93
2022/09/01 01:00:11;;;;;;;3.63;1.30;;;15.80;99.90;;;-144.05;48.13;125687.94;4921594;29;20033;-89
2022/09/01 01:02:47;;;;;;;2.88;1.10;;;15.70;99.90;;;-144.05;48.38;125687.94;4922421;29;20047;-89
2022/09/01 01:05:14;;;;;;;;;;;15.60;99.90;;;-144.05;48.77;125687.94;4922232;29;20118;-87
2022/09/01 01:07:45;;;;;;;4.93;1.40;;;15.50;99.90;;;-144.05;49.17;125687.94;4920936;29;19910;-89
2022/09/01 01:10:15;;;;;;;3.10;1.55;;;15.50;99.90;;;-144.05;49.50;125687.94;4936603;29;20033;-88
2022/09/01 01:12:45;;;;;;;4.65;1.83;;;15.40;99.90;;;-144.05;49.26;125687.94;4920150;29;20119;-87
2022/09/01 01:15:16;;;;;;;2.72;1.50;;;15.40;99.90;;;-144.05;49.61;125687.94;4920200;29;20028;-89
2022/09/01 01:17:44;;;;;;;5.55;1.50;;;15.30;99.90;;;-144.05;49.86;125687.94;4935935;29;20024;-87
2022/09/01 01:23:40;;;;;;;3.03;1.50;;;15.20;99.90;;;-144.05;50.34;125687.94;4922034;29;20452;-89
2022/09/01 01:26:09;;;;;;;4.32;1.60;;;15.10;99.90;;;-144.05;50.56;125687.94;4921901;29;20477;-89
2022/09/01 01:28:41;;;;;;;4.43;1.65;;;15.00;99.90;;;-144.05;50.71;125687.94;4937316;29;20036;-89
2022/09/01 01:31:17;;;;;;;5.07;1.88;;;14.90;99.90;;;-144.05;51.11;125687.94;4944146;29;20043;-86
2022/09/01 01:33:52;;;;;;;2.65;1.63;;;14.90;99.90;;;-144.05;51.00;125687.94;4948373;29;20016;-86
2022/09/01 01:36:35;;;;;;;4.85;1.27;;;14.90;99.90;;;-144.05;51.11;125687.94;4937313;29;20052;-84
2022/09/01 01:39:24;;;;;;;4.75;1.70;;;14.80;99.90;;;-144.05;51.59;125687.94;4949040;28;20032;-87
2022/09/01 01:41:56;;;;;;;3.80;1.40;;;14.80;99.90;;;-144.05;51.45;125687.94;4937699;29;20055;-85
2022/09/01 01:44:27;;;;;;;4.05;1.40;;;14.80;99.90;;;-144.05;51.28;125687.94;4934752;29;20036;-85
2022/09/01 01:46:56;;;;;;;2.42;1.40;;;14.70;99.90;;;-144.05;51.63;125687.94;4950802;28;20044;-84
2022/09/01 01:49:29;;;;;;;1.95;1.30;;;14.70;99.90;;;-144.05;51.64;125687.94;4945472;28;20044;-86
2022/09/01 01:51:56;;;;;;;2.75;1.25;;;14.80;99.90;;;-144.05;51.58;125687.94;4920098;29;20036;-89
2022/09/01 01:54:25;;;;;;;2.95;1.50;;;14.70;99.90;;;-144.05;51.77;125687.94;4935868;29;20477;-90
2022/09/01 01:56:51;;;;;;;2.03;1.08;;;14.70;99.90;;;-144.05;52.14;125687.94;4935527;29;20055;-91
2022/09/01 01:59:18;;;;;;;2.80;1.63;;;14.70;99.90;;;-144.05;51.96;125687.94;4919926;29;20032;-89
2022/09/01 02:01:50;;;;;;;2.35;1.63;;;14.70;99.90;;;-144.05;52.18;125687.94;4936032;29;20083;-88
2022/09/01 02:04:19;;;;;;;3.42;1.50;;;14.60;99.90;;;-144.05;52.09;125687.94;4935622;29;20111;-89
2022/09/01 02:06:50;;;;;;;2.97;1.40;;;14.50;99.90;;;-144.05;52.46;125687.94;4936078;29;20025;-91
2022/09/01 02:09:23;;;;;;;4.53;1.70;;;14.50;99.90;;;-144.05;52.39;125687.94;4936173;29;20040;-88
2022/09/01 02:11:53;;;;;;;4.18;1.65;;;14.40;99.90;;;-144.05;52.90;125687.94;4938228;29;20040;-89
2022/09/01 02:14:24;;;;;;;4.13;1.50;;;14.40;99.90;;;-144.05;52.68;125687.94;4940920;29;20028;-85
2022/09/01 02:16:51;;;;;;;2.70;1.45;;;14.40;99.90;;;-144.05;52.83;125687.94;4942488;29;20104;-89
2022/09/01 02:19:21;;;;;;;2.50;1.50;;;14.30;99.90;;;-144.05;53.35;125687.94;4928537;29;20369;-89
2022/09/01 02:21:53;;;;;;;5.18;1.55;;;14.30;99.90;;;-144.05;53.30;125687.94;4928097;29;20100;-88
2022/09/01 02:24:20;;;;;;;4.45;1.95;;;14.20;99.90;;;-144.05;53.52;125687.94;4926302;29;20043;-89
2022/09/01 02:26:47;;;;;;;5.70;1.50;;;14.20;99.90;;;-144.05;53.87;125687.94;4925227;29;20139;-89
2022/09/01 02:29:28;;;;;;;3.47;1.67;;;14.10;99.90;;;-144.05;53.75;125687.94;4939591;29;20131;-88
2022/09/01 02:31:58;;;;;;;3.10;1.40;;;14.10;99.90;;;-144.05;53.91;125687.94;4923399;29;20040;-89
2022/09/01 02:34:38;;;;;;;4.28;1.75;;;14.10;99.90;;;-144.05;54.20;125687.94;4923057;29;20054;-89
2022/09/01 02:37:04;;;;;;;5.07;1.45;;;14.10;99.90;;;-144.05;54.41;125687.94;4923069;29;20481;-89
2022/09/01 02:39:32;;;;;;;2.38;1.48;;;14.00;99.90;;;-144.05;54.17;125687.94;4922646;29;20028;-91
2022/09/01 02:42:00;;;;;;;2.72;1.27;;;14.00;99.90;;;-144.05;54.41;125687.94;4926999;29;20088;-90
2022/09/01 02:44:29;;;;;;;2.47;1.30;;;14.00;99.90;;;-144.05;54.46;125687.94;4924687;29;20142;-87
2022/09/01 02:46:57;;;;;;;7.13;1.70;;;14.00;99.90;;;-144.05;54.51;125687.94;4923668;29;20497;-86
2022/09/01 02:49:24;;;;;;;3.35;1.52;;;14.00;99.90;;;-144.05;54.51;125687.94;4922303;29;20028;-89
2022/09/01 02:51:56;;;;;;;3.65;1.90;;;14.00;99.90;;;-144.05;54.40;125687.94;4922012;29;20048;-89
2022/09/01 02:54:24;;;;;;;5.30;1.95;;;14.00;99.90;;;-144.05;54.67;125687.94;4921386;29;20092;-87
2022/09/01 02:56:53;;;;;;;15.30;1.77;;;14.00;99.90;;;-144.05;54.76;125687.94;4937603;29;20034;-87
2022/09/01 02:59:27;;;;;;;4.53;1.92;;;13.90;99.90;;;-144.05;54.75;125687.94;4924300;29;20130;-88
2022/09/01 03:02:00;;;;;;;5.20;2.10;;;13.90;99.90;;;-144.05;55.15;125687.94;4927593;29;20056;-87
2022/09/01 03:04:33;;;;;;;3.15;2.30;;;14.00;99.90;;;-144.05;54.78;125687.94;4927304;29;20437;-88
2022/09/01 03:07:07;;;;;;;3.95;1.70;;;14.00;99.90;;;-144.05;54.52;125687.94;4927790;29;20028;-89
2022/09/01 03:09:42;;;;;;;2.42;1.55;;;14.00;99.90;;;-144.05;54.58;125687.94;4927315;29;20038;-88
2022/09/01 03:12:23;;;;;;;2.97;1.55;;;13.90;99.90;;;-144.05;54.75;125687.94;4943651;29;20043;-86
2022/09/01 03:14:53;;;;;;;4.93;1.75;;;14.00;99.90;;;-144.05;54.57;125687.94;4927800;29;20032;-87
2022/09/01 03:17:23;;;;;;;4.50;1.70;;;14.00;99.90;;;-144.05;54.47;125687.94;4943009;29;20052;-89
2022/09/01 03:19:53;;;;;;;3.88;1.60;;;14.00;99.90;;;-144.05;54.50;125687.94;4926665;29;20032;-90
2022/09/01 03:22:28;;;;;;;5.53;1.80;;;14.10;99.90;;;-144.05;54.36;125687.94;4928015;29;20070;-86
2022/09/01 03:25:11;;;;;;;;;;;;;;;;;;;;;
2022/09/01 03:27:41;;;;;;;3.45;1.90;;;14.10;99.90;;;-144.05;54.08;125687.94;4929381;29;20524;-88
2022/09/01 03:30:08;;;;;;;5.57;1.63;;;14.20;99.90;;;-144.05;54.08;125687.94;4941696;29;20031;-87
2022/09/01 03:32:33;;;;;;;4.18;1.67;;;14.10;99.90;;;-144.05;53.86;125687.94;4937052;29;20028;-86
2022/09/01 03:34:59;;;;;;;2.53;1.70;;;14.20;99.90;;;-144.05;53.83;125687.94;4920727;29;20100;-86
2022/09/01 03:37:25;;;;;;;3.10;1.63;;;14.20;99.90;;;-144.05;53.75;125687.94;4943158;28;20028;-84
2022/09/01 03:39:51;;;;;;;3.90;1.50;;;14.20;99.90;;;-144.05;53.92;125687.94;4957194;28;20016;-83
2022/09/01 03:42:21;;;;;;;5.38;1.70;;;14.30;99.90;;;-144.05;53.91;125687.94;4943783;29;20036;-86
2022/09/01 03:44:48;;;;;;;2.92;1.73;;;14.20;99.90;;;-144.05;53.87;125687.94;4936541;29;20031;-85
2022/09/01 03:47:15;;;;;;;2.97;1.58;;;14.20;99.90;;;-144.05;53.47;125687.94;4936046;29;20043;-86
2022/09/01 03:49:42;;;;;;;3.22;1.50;;;14.30;99.90;;;-144.05;53.69;125687.94;4939631;29;20028;-88
2022/09/01 03:52:10;;;;;;;4.72;1.38;;;14.20;99.90;;;-144.05;53.81;125687.94;4941911;29;20024;-88
2022/09/01 03:54:37;;;;;;;5.95;2.05;;;14.30;99.90;;;-144.05;53.65;125687.94;4946602;29;20032;-87
2022/09/01 03:57:05;;;;;;;4.05;2.00;;;14.20;99.90;;;-144.05;53.93;125687.94;4923988;29;20042;-87
2022/09/01 03:59:32;;;;;;;4.60;2.25;;;14.20;99.90;;;-144.05;53.90;125687.94;4943224;29;20036;-87
2022/09/01 04:01:59;;;;;;;3.45;1.58;;;14.10;99.90;;;-144.05;53.96;125687.94;4941075;29;20028;-89
2022/09/01 04:04:25;;;;;;;6.85;1.98;;;14.10;99.90;;;-144.05;54.13;125687.94;4937362;29;20142;-87
2022/09/01 04:06:51;;;;;;;4.25;1.90;;;14.10;99.90;;;-144.05;53.94;125687.94;4938505;29;20034;-89
2022/09/01 04:09:17;;;;;;;5.80;1.38;;;14.10;99.90;;;-144.05;54.07;125687.94;4937978;29;20055;-90
2022/09/01 04:11:47;;;;;;;5.00;1.60;;;14.10;99.90;;;-144.05;54.03;125687.94;4938089;29;20055;-89
2022/09/01 04:14:14;;;;;;;2.30;1.80;;;14.00;99.90;;;-144.05;54.22;125687.94;4923112;29;20423;-89
2022/09/01 04:19:26;;;;;;;3.33;1.55;;;13.90;99.90;;;-144.05;54.64;125687.94;4923827;29;20071;-87
2022/09/01 04:21:59;;;;;;;3.63;1.48;;;13.80;99.90;;;-144.05;54.35;125687.94;4921958;29;20119;-87
2022/09/01 04:24:30;;;;;;;3.75;2.17;;;13.80;99.90;;;-144.05;54.39;125687.94;4938349;29;20036;-87
2022/09/01 04:27:01;;;;;;;5.00;2.03;;;13.80;99.90;;;-144.05;54.63;125687.94;4921007;29;20100;-85
2022/09/01 04:29:30;;;;;;;4.50;2.17;;;13.70;99.90;;;-144.05;54.47;125687.94;4937985;29;20048;-89
2022/09/01 04:32:06;;;;;;;3.45;1.83;;;13.70;99.90;;;-144.05;54.81;125687.94;4938272;29;20055;-86
2022/09/01 04:34:38;;;;;;;2.03;1.65;;;13.70;99.90;;;-144.05;54.83;125687.94;4923072;29;20024;-86
2022/09/01 04:37:20;;;;;;;5.10;1.70;;;13.70;99.90;;;-144.05;55.14;125687.94;4939067;29;20047;-89
2022/09/01 04:39:55;;;;;;;2.65;1.80;;;13.60;99.90;;;-144.05;55.40;125687.94;4923229;29;20048;-89
2022/09/01 04:42:25;;;;;;;5.50;1.92;;;13.60;99.90;;;-144.05;55.43;125687.94;4923788;29;20056;-89
2022/09/01 04:44:53;;;;;;;3.83;1.67;;;13.50;99.90;;;-144.05;55.36;125687.94;4924015;29;20087;-87
2022/09/01 04:47:28;;;;;;;5.65;1.83;;;13.50;99.90;;;-144.05;55.71;125687.94;4923875;29;20520;-88
2022/09/01 04:49:59;;;;;;;5.93;1.90;;;13.40;99.90;;;-144.05;55.65;125687.94;4923655;29;20516;-89
2022/09/01 04:52:26;;;;;;;2.65;1.80;;;13.40;99.90;;;-144.05;55.64;125687.94;4939978;29;20059;-87
2022/09/01 04:54:53;;;;;;;2.28;1.42;;;13.40;99.90;;;-144.05;55.57;125687.94;4923721;29;20036;-90
2022/09/01 04:57:21;;;;;;;6.63;2.00;;;13.40;99.90;;;-144.05;55.75;125687.94;4925772;29;20034;-88
2022/09/01 04:59:47;;;;;;;3.20;1.73;;;13.40;99.90;;;-144.05;55.72;125687.94;4923308;29;20032;-88
2022/09/01 05:02:13;;;;;;;5.93;1.92;;;13.30;99.90;;;-144.05;55.71;125687.94;4923323;29;20034;-90
2022/09/01 05:04:40;;;;;;;4.80;2.15;;;13.30;99.90;;;-144.05;55.92;125687.94;4939177;29;20431;-87
2022/09/01 05:07:07;;;;;;;5.25;1.92;;;13.30;99.90;;;-144.05;55.86;125687.94;4923055;29;20027;-87
2022/09/01 05:09:36;;;;;;;6.05;1.65;;;13.40;99.90;;;-144.05;55.64;125687.94;4922034;29;20165;-91
2022/09/01 05:12:11;;;;;;;4.93;1.90;;;13.40;99.90;;;-144.05;55.59;125687.94;4923302;29;20396;-87
2022/09/01 05:14:47;;;;;;;3.70;1.83;;;13.40;99.90;;;-144.05;55.84;125687.94;4924020;29;20032;-88
2022/09/01 05:17:15;;;;;;;2.85;2.13;;;13.40;99.90;;;-144.05;55.60;125687.94;4938684;29;20396;-86
2022/09/01 05:19:49;;;;;;;5.63;1.90;;;13.40;99.90;;;-144.05;55.38;125687.94;4924935;29;20020;-87
2022/09/01 05:22:20;;;;;;;4.10;1.70;;;13.40;99.90;;;-144.05;55.48;125687.94;4924578;29;20083;-89
2022/09/01 05:24:46;;;;;;;5.57;1.85;;;13.40;99.90;;;-144.05;55.70;125687.94;4925247;29;20035;-86
2022/09/01 05:27:13;;;;;;;4.50;2.15;;;13.40;99.90;;;-144.05;55.64;125687.94;4923338;29;20028;-87
2022/09/01 05:29:40;;;;;;;5.75;2.00;;;13.40;99.90;;;-144.05;55.59;125687.94;4924675;29;20032;-88
2022/09/01 05:32:11;;;;;;;3.30;2.10;;;13.40;99.90;;;-144.05;55.32;125687.94;4948976;29;20028;-85
2022/09/01 05:34:43;;;;;;;5.63;1.98;;;13.40;99.90;;;-144.05;55.10;125687.94;4924811;29;20036;-88
2022/09/01 05:37:13;;;;;;;4.20;1.92;;;13.50;99.90;;;-144.05;55.22;125687.94;4922829;29;20432;-89
2022/09/01 05:39:39;;;;;;;3.60;1.88;;;13.50;99.90;;;-144.05;54.95;125687.94;4939803;29;20091;-90
2022/09/01 05:42:08;;;;;;;3.10;2.00;;;13.60;99.90;;;-144.05;54.78;125687.94;4923585;29;20068;-88
2022/09/01 05:44:43;;;;;;;3.78;2.00;;;13.70;99.90;;;-144.05;54.35;125687.94;4923190;29;20043;-89
2022/09/01 05:47:15;;;;;;;4.22;2.15;;;13.80;99.90;;;-144.05;54.37;125687.94;4923025;29;20480;-89
2022/09/01 05:49:41;;;;;;;4.22;1.73;;;13.90;99.90;;;-144.05;53.96;125687.94;4924352;29;20042;-89
2022/09/01 05:52:08;;;;;;;5.20;2.00;;;14.10;99.90;;;-144.05;53.91;125687.94;4923530;29;20060;-88
2022/09/01 05:54:36;;;;;;;3.30;1.95;;;14.10;99.90;;;-144.05;53.64;125687.94;4923799;29;20111;-89
2022/09/01 05:57:04;;;;;;;4.55;1.92;;;14.30;99.90;;;-144.05;53.13;125687.94;4923197;29;20028;-90
2022/09/01 05:59:30;;;;;;;10.70;2.80;;;14.40;99.90;;;-144.05;51.36;125687.94;4938616;29;20146;-88
2022/09/01 06:01:56;;;;;;;4.35;1.70;;;14.50;99.90;;;-144.05;51.81;125687.94;4923782;29;20063;-90
2022/09/01 06:04:24;;;;;;;8.27;2.60;;;14.70;99.90;;;-144.05;50.65;125687.94;4928175;29;20028;-88
2022/09/01 06:06:52;;;;;;;3.95;2.10;;;14.90;99.90;;;-144.05;48.61;125687.94;4948422;29;20092;-89
2022/09/01 06:09:19;;;;;;;4.47;2.08;;;15.00;99.90;;;-144.05;48.78;125687.94;4948084;29;20032;-90
2022/09/01 06:11:47;;;;;;;3.08;1.85;;;15.20;99.90;;;-144.05;47.56;125687.94;4929005;29;20028;-86
2022/09/01 06:14:17;;;;;;;3.83;1.90;;;15.40;99.90;;;-144.05;47.15;125687.94;4921876;29;20091;-88
2022/09/01 06:16:44;;;;;;;4.47;2.30;;;15.70;99.90;;;-144.05;45.97;125687.94;4938908;29;20033;-88
2022/09/01 06:19:11;;;;;;;2.95;1.83;;;15.80;99.90;;;-144.05;45.86;125687.94;4923726;29;20203;-87
2022/09/01 06:21:41;;;;;;;3.90;1.90;;;16.10;99.90;;;-144.05;44.45;125687.94;4938976;29;20099;-86
2022/09/01 06:24:07;;;;;;;3.22;1.60;;;16.40;99.90;;;-144.05;44.08;125687.94;4923377;29;20032;-87
2022/09/01 06:26:38;;;;;;;4.28;1.90;;;16.80;99.90;;;-144.05;43.16;125687.94;4923722;29;20035;-88
2022/09/01 06:29:14;;;;;;;4.72;2.03;;;17.00;99.90;;;-144.05;43.07;125687.94;4923700;29;20070;-90
2022/09/01 06:31:46;;;;;;;5.18;1.88;;;17.20;99.90;;;-144.05;42.77;125687.94;4939424;29;20080;-88
2022/09/01 06:34:16;;;;;;;4.10;1.77;;;17.40;99.90;;;-144.05;42.76;125687.94;4924184;29;20054;-87
2022/09/01 06:36:45;;;;;;;3.50;2.10;;;17.60;99.90;;;-144.05;42.56;125687.94;4925392;29;20421;-87
2022/09/01 06:39:21;;;;;;;8.73;2.63;;;17.80;99.90;;;-144.05;42.03;125687.94;4939514;29;20430;-88
2022/09/01 06:41:51;;;;;;;10.10;2.63;;;18.00;99.90;;;-144.05;42.12;125687.94;4924417;29;20028;-88
2022/09/01 06:44:21;;;;;;;5.80;2.28;;;18.20;99.90;;;-144.05;42.01;125687.94;4946288;29;20091;-85
2022/09/01 06:46:52;;;;;;;6.97;2.10;;;18.30;99.90;;;-144.05;42.05;125687.94;4938265;28;20020;-86
2022/09/01 06:49:22;;;;;;;4.60;1.90;;;18.60;99.90;;;-144.05;41.64;125687.94;4954053;28;20047;-88
2022/09/01 06:51:50;;;;;;;4.35;1.80;;;18.70;99.90;;;-144.05;41.56;125687.94;4928358;29;20092;-86
2022/09/01 06:54:18;;;;;;;4.45;1.55;;;18.60;99.90;;;-144.05;41.40;125687.94;4924870;29;20028;-88
2022/09/01 06:56:45;;;;;;;5.32;1.95;;;18.60;99.90;;;-144.05;41.50;125687.94;4924804;29;20036;-90
2022/09/01 06:59:11;;;;;;;2.63;1.80;;;18.60;99.90;;;-144.05;41.00;125687.94;4926528;29;20028;-89
2022/09/01 07:01:38;;;;;;;3.55;1.63;;;18.70;99.90;;;-144.05;41.51;125687.94;4927818;29;20032;-89
2022/09/01 07:04:03;;;;;;;4.90;1.92;;;18.80;99.90;;;-144.05;40.62;125687.94;4926896;29;20095;-88
2022/09/01 07:06:30;;;;;;;4.20;1.83;;;19.00;99.90;;;-144.05;40.33;125687.94;4926690;29;20055;-88
2022/09/01 07:09:00;;;;;;;3.80;1.60;;;19.10;99.90;;;-144.05;39.88;125687.94;4941888;29;20032;-87
2022/09/01 07:11:33;;;;;;;3.50;1.63;;;19.40;99.90;;;-144.05;39.99;125687.94;4941419;29;20035;-88
2022/09/01 07:14:05;;;;;;;6.70;1.83;;;19.60;99.90;;;-144.05;39.76;125687.94;4941814;29;20039;-88
2022/09/01 07:16:39;;;;;;;7.30;2.25;;;19.70;99.90;;;-144.05;39.50;125687.94;4942394;29;20037;-86
2022/09/01 07:19:13;;;;;;;4.80;2.10;;;19.90;99.90;;;-144.05;38.86;125687.94;4942238;29;20035;-87
2022/09/01 07:21:42;;;;;;;8.77;1.92;;;20.10;99.90;;;-144.05;38.47;125687.94;4941676;29;20039;-92
2022/09/01 07:24:10;;;;;;;3.67;1.52;;;20.20;99.90;;;-144.05;37.89;125687.94;4944486;29;20051;-88
2022/09/01 07:26:40;;;;;;;4.78;1.50;;;20.40;99.90;;;-144.05;37.91;125687.94;4955013;29;20046;-88
2022/09/01 07:29:08;;;;;;;3.08;1.45;;;20.60;99.90;;;-144.05;37.91;125687.94;4943050;29;20114;-87
2022/09/01 07:31:42;;;;;;;3.35;1.75;;;20.70;99.90;;;-144.05;37.75;125687.94;4926552;29;20060;-86
2022/09/01 07:34:13;;;;;;;4.93;1.52;;;20.70;99.90;;;-144.05;37.59;125687.94;4925455;29;20035;-88
2022/09/01 07:36:43;;;;;;;5.13;1.33;;;20.80;99.90;;;-144.05;37.06;125687.94;4941847;29;20028;-90
2022/09/01 07:39:12;;;;;;;2.33;1.08;;;20.90;99.90;;;-144.05;37.64;125687.94;4925041;29;20092;-86
2022/09/01 07:41:41;;;;;;;7.13;1.85;;;20.80;99.90;;;-144.05;37.13;125687.94;4940253;29;20095;-87
2022/09/01 07:44:12;;;;;;;3.33;1.48;;;21.00;99.90;;;-144.05;36.56;125687.94;4924588;29;20032;-88
2022/09/01 07:46:40;;;;;;;4.30;1.80;;;21.30;99.90;;;-144.05;36.52;125687.94;4940861;29;20035;-89
2022/09/01 07:49:08;;;;;;;9.40;1.63;;;21.50;99.90;;;-144.05;36.02;125687.94;4940566;29;20028;-89
2022/09/01 07:51:35;;;;;;;5.07;1.40;;;21.60;99.90;;;-144.05;35.97;125687.94;4925070;29;20028;-88
2022/09/01 07:54:01;;;;;;;2.95;1.35;;;21.80;99.90;;;-144.05;35.49;125687.94;4940499;29;20112;-90
2022/09/01 07:56:29;;;;;;;4.40;1.35;;;21.80;99.90;;;-144.05;35.55;125687.94;4925210;29;20024;-90
2022/09/01 07:58:57;;;;;;;4.50;1.45;;;22.00;99.90;;;-144.05;35.22;125687.94;4925509;29;20099;-90
2022/09/01 08:01:26;;;;;;;5.57;1.88;;;22.10;99.90;;;-144.05;35.04;125687.94;4943328;29;20040;-89
2022/09/01 08:03:59;;;;;;;2.13;1.17;;;22.40;99.70;;;-144.05;34.58;125687.94;4942936;29;20043;-87
2022/09/01 08:06:27;;;;;;;2.67;1.25;;;22.50;98.70;;;-144.05;34.23;125687.94;4941085;29;20036;-90
2022/09/01 08:08:58;;;;;;;5.78;1.23;;;22.60;98.10;;;-144.05;34.53;125687.94;4939940;29;20032;-88
2022/09/01 08:11:29;;;;;;;5.82;1.35;;;22.80;98.50;;;-144.05;33.99;125687.94;4924191;29;20036;-88
2022/09/01 08:13:58;;;;;;;5.55;1.40;;;23.10;97.80;;;-144.05;34.18;125687.94;4947811;29;20032;-87
2022/09/01 08:16:27;;;;;;;2.90;1.10;;;23.00;97.50;;;-144.05;34.03;125687.94;4934055;29;20084;-88
2022/09/01 08:18:56;;;;;;;6.13;1.33;;;23.10;97.10;;;-144.05;33.79;125687.94;4931271;29;20032;-85
2022/09/01 08:21:24;;;;;;;10.10;1.45;;;23.10;96.60;;;-144.05;33.21;125687.94;4947349;29;20032;-88
2022/09/01 08:23:54;;;;;;;4.65;1.77;;;23.30;96.40;;;-144.05;33.42;125687.94;4945243;29;20032;-88
2022/09/01 08:26:25;;;;;;;4.88;1.52;;;23.60;96.20;;;-144.05;32.54;125687.94;4927172;29;20062;-88
2022/09/01 08:28:54;;;;;;;5.65;1.20;;;23.70;95.10;;;-144.05;32.60;125687.94;4938993;29;20063;-87
2022/09/01 08:31:23;;;;;;;4.75;1.50;;;23.60;94.80;;;-144.05;32.50;125687.94;4924221;29;20020;-89
2022/09/01 08:33:51;;;;;;;4.65;1.50;;;23.70;94.40;;;-144.05;32.34;125687.94;4940185;29;20036;-87
2022/09/01 08:36:20;;;;;;;4.25;1.30;;;23.80;93.80;;;-144.05;32.02;125687.94;4938247;29;20481;-89
2022/09/01 08:38:47;;;;;;;5.88;1.23;;;24.20;93.20;;;-144.05;31.80;125687.94;4937010;29;20036;-88
2022/09/01 08:41:56;;;;;;;3.33;1.40;;;24.40;92.50;;;-144.05;31.47;125687.94;4939766;29;20028;-88
2022/09/01 08:44:48;;;;;;;3.67;1.40;;;24.50;92.40;;;-144.05;31.87;125687.94;4925709;29;20064;-88
2022/09/01 08:47:18;;;;;;;2.90;1.02;;;24.50;92.10;;;-144.05;31.41;125687.94;4939957;29;20032;-87
2022/09/01 08:49:48;;;;;;;2.83;1.08;;;24.50;91.60;;;-144.05;31.39;125687.94;4939671;29;20416;-88
2022/09/01 08:52:43;;;;;;;4.35;1.30;;;24.70;91.20;;;-144.05;30.83;125687.94;4924115;29;20028;-87
2022/09/01 08:55:42;;;;;;;1.85;0.95;;;24.60;89.60;;;-144.05;30.88;125687.94;4938890;29;20122;-88
2022/09/01 08:58:16;;;;;;;5.57;1.02;;;24.60;89.40;;;-144.05;31.71;125687.94;4939120;29;20126;-88
2022/09/01 09:00:54;;;;;;;2.25;1.00;;;24.50;90.50;;;-144.05;31.02;125687.94;4925423;29;20056;-88
2022/09/01 09:04:04;;;;;;;2.95;0.90;;;24.60;89.30;;;-144.05;31.31;125687.94;4940440;29;20131;-87
2022/09/01 09:06:50;;;;;;;3.25;0.73;;;24.70;88.40;;;-144.05;30.61;125687.94;4938320;29;20085;-88
2022/09/01 09:09:16;;;;;;;1.77;1.10;;;24.90;86.50;;;-144.05;30.94;125687.94;4938758;29;20043;-91
2022/09/01 09:12:11;;;;;;;2.00;0.90;;;24.90;86.10;;;-144.05;30.83;125687.94;4921747;29;20124;-87
2022/09/01 09:15:21;;;;;;;2.78;1.10;;;25.00;85.20;;;-144.05;30.93;125687.94;4936649;29;20488;-86
2022/09/01 09:18:25;;;;;;;1.88;0.90;;;24.80;83.90;;;-144.05;31.13;125687.94;4925357;29;20091;-90
2022/09/01 09:20:53;;;;;;;3.13;1.10;;;24.80;86.00;;;-144.05;30.48;125687.94;4929982;29;20032;-88
2022/09/01 09:23:42;;;;;;;3.55;1.10;;;24.80;83.80;;;-144.05;30.54;125687.94;4922263;29;20038;-88
2022/09/01 09:26:08;;;;;;;2.30;1.10;;;24.80;83.50;;;-144.05;31.77;125687.94;4922962;29;20039;-90
2022/09/01 09:28:34;;;;;;;4.68;1.02;;;24.60;85.90;;;-144.05;31.93;125687.94;4920622;29;20043;-90
2022/09/01 09:31:30;;;;;;;2.45;1.02;;;24.70;87.10;;;-144.05;31.77;125687.94;4922590;29;20063;-88
2022/09/01 09:33:57;;;;;;;2.03;1.20;;;24.80;87.60;;;-144.05;31.45;125687.94;4920991;29;20043;-88
2022/09/01 09:36:36;;;;;;;3.53;0.98;;;25.20;87.40;;;-144.05;30.26;125687.94;4922390;29;20036;-86
2022/09/01 09:39:29;;;;;;;5.78;1.02;;;25.70;83.30;;;-144.05;30.56;125687.94;4936680;29;20036;-89
2022/09/01 09:42:12;;;;;;;3.95;0.90;;;25.90;85.20;;;-144.05;31.03;125687.94;4936620;29;20044;-87
2022/09/01 09:44:51;;;;;;;2.45;1.13;;;25.80;84.10;;;-144.05;31.22;125687.94;4922098;29;20028;-90
2022/09/01 09:47:38;;;;;;;3.05;1.10;;;25.90;85.60;;;-144.05;30.67;125687.94;4922056;29;20032;-86
2022/09/01 09:50:46;;;;;;;3.45;1.10;;;26.00;83.10;;;-144.05;30.56;125687.94;4922078;29;20032;-90
2022/09/01 09:53:26;;;;;;;3.38;0.80;;;26.00;82.50;;;-144.05;30.06;125687.94;4921139;29;20036;-90
2022/09/01 09:56:14;;;;;;;4.28;0.93;;;26.00;81.20;;;-144.05;30.59;125687.94;4922323;29;20028;-86
2022/09/01 09:58:46;;;;;;;4.65;1.20;;;25.80;81.70;;;-144.05;30.35;125687.94;4921562;29;20020;-84
2022/09/01 10:01:21;;;;;;;1.85;0.98;;;25.90;81.30;;;-144.05;30.16;125687.94;4937519;29;20036;-89
2022/09/01 10:04:35;;;;;;;4.15;1.23;;;26.00;80.00;;;-144.05;29.89;125687.94;4922575;29;20442;-89
2022/09/01 10:07:33;;;;;;;2.80;0.90;;;25.90;78.60;;;-144.05;30.06;125687.94;4924229;29;20078;-91
2022/09/01 10:10:41;;;;;;;2.03;0.95;;;25.70;78.30;;;-144.05;30.29;125687.94;4925790;29;20029;-89
2022/09/01 10:13:20;;;;;;;2.55;0.75;;;25.80;79.50;;;-144.05;30.31;125687.94;4924147;29;20039;-86
2022/09/01 10:15:56;;;;;;;2.70;1.00;;;25.80;79.90;;;-144.05;30.28;125687.94;4938248;29;20046;-89
2022/09/01 10:18:34;;;;;;;1.77;0.90;;;26.00;80.10;;;-144.05;30.09;125687.94;4936704;29;20032;-90
2022/09/01 10:21:27;;;;;;;4.28;1.17;;;26.30;79.10;;;-144.05;30.26;125687.94;4923902;29;20059;-88
2022/09/01 10:23:53;;;;;;;2.63;1.30;;;26.20;78.40;;;-144.05;30.23;125687.94;4941622;29;20092;-92
2022/09/01 10:26:37;;;;;;;2.83;1.08;;;26.20;78.80;;;-144.05;30.07;125687.94;4923184;29;20067;-88
2022/09/01 10:29:18;;;;;;;3.92;0.98;;;26.40;78.50;;;-144.05;30.05;125687.94;4923332;29;20043;-88
2022/09/01 10:31:44;;;;;;;2.92;1.13;;;26.50;77.50;;;-144.05;30.36;125687.94;4929399;29;20047;-89